createdAt,value
2018-04-19T00:01:53.829Z,19.43
2018-04-19T00:04:21.377Z,18.30
2018-04-19T00:06:48.851Z,17.07
2018-04-19T00:09:16.344Z,18.17
2018-04-19T00:11:44.709Z,18.63
2018-04-19T00:14:12.996Z,18.07
2018-04-19T00:16:40.501Z,18.03
2018-04-19T00:19:08.007Z,19.53
2018-04-19T00:21:35.503Z,18.03
2018-04-19T00:24:03.760Z,19.53
2018-04-19T00:26:32.028Z,18.60
2018-04-19T00:29:00.299Z,19.27
2018-04-19T00:31:27.801Z,19.03
2018-04-19T00:33:55.310Z,18.47
2018-04-19T00:36:22.806Z,18.83
2018-04-19T00:38:50.299Z,18.73
2018-04-19T00:41:17.899Z,18.20
2018-04-19T00:43:45.418Z,18.40
2018-04-19T00:46:13.408Z,18.47
2018-04-19T00:48:40.872Z,19.13
2018-04-19T00:51:08.359Z,19.20
2018-04-19T00:53:36.606Z,18.20
2018-04-19T00:56:04.109Z,18.13
2018-04-19T00:58:31.612Z,19.40
2018-04-19T01:00:59.089Z,19.30
2018-04-19T01:03:26.597Z,19.60
2018-04-19T01:05:54.326Z,19.10
2018-04-19T01:08:22.651Z,19.57
2018-04-19T01:10:50.136Z,20.23
2018-04-19T01:13:17.647Z,18.67
2018-04-19T01:15:45.147Z,19.10
2018-04-19T01:18:12.767Z,19.87
2018-04-19T01:20:40.247Z,19.87
2018-04-19T01:23:07.730Z,19.80
2018-04-19T01:25:35.221Z,18.97
2018-04-19T01:28:02.812Z,20.63
2018-04-19T01:30:30.302Z,21.20
2018-04-19T01:32:58.575Z,19.97
2018-04-19T01:35:37.990Z,19.57
2018-04-19T01:38:05.486Z,20.07
2018-04-19T01:40:32.960Z,19.20
2018-04-19T01:43:00.448Z,20.63
2018-04-19T01:45:27.951Z,20.93
2018-04-19T01:47:55.458Z,19.43
2018-04-19T01:50:22.967Z,20.27
2018-04-19T01:52:50.470Z,20.73
2018-04-19T01:55:18.720Z,21.33
2018-04-19T01:57:46.702Z,20.17
2018-04-19T02:00:14.996Z,20.97
2018-04-19T02:02:43.241Z,20.73
2018-04-19T02:05:10.756Z,20.67
2018-04-19T02:07:38.284Z,20.97
2018-04-19T02:10:06.548Z,20.30
2018-04-19T02:12:34.022Z,20.37
2018-04-19T02:15:02.320Z,20.73
2018-04-19T02:17:29.816Z,20.93
2018-04-19T02:19:57.318Z,22.23
2018-04-19T02:22:24.852Z,22.23
2018-04-19T02:24:52.339Z,22.60
2018-04-19T02:27:19.851Z,22.13
2018-04-19T02:29:47.354Z,21.13
2018-04-19T02:32:15.602Z,21.07
2018-04-19T02:34:43.117Z,23.00
2018-04-19T02:37:10.616Z,21.57
2018-04-19T02:39:38.187Z,21.60
2018-04-19T02:42:06.518Z,21.20
2018-04-19T02:44:34.019Z,22.83
2018-04-19T02:47:01.532Z,22.53
2018-04-19T02:49:29.141Z,21.47
2018-04-19T02:51:56.641Z,23.07
2018-04-19T02:54:24.169Z,22.60
2018-04-19T02:56:53.117Z,21.83
2018-04-19T02:59:20.578Z,22.53
2018-04-19T03:01:48.095Z,23.37
2018-04-19T03:04:15.601Z,23.10
2018-04-19T03:06:43.107Z,24.57
2018-04-19T03:09:11.337Z,24.90
2018-04-19T03:11:38.832Z,23.47
2018-04-19T03:14:07.096Z,22.20
2018-04-19T03:16:34.595Z,23.87
2018-04-19T03:19:02.102Z,25.67
2018-04-19T03:21:29.585Z,25.03
2018-04-19T03:23:57.104Z,25.77
2018-04-19T03:26:25.373Z,25.43
2018-04-19T03:28:52.896Z,26.17
2018-04-19T03:31:20.354Z,26.90
2018-04-19T03:33:47.859Z,26.70
2018-04-19T03:36:15.347Z,25.43
2018-04-19T03:38:43.608Z,26.17
2018-04-19T03:41:11.719Z,26.17
2018-04-19T03:43:39.218Z,26.37
2018-04-19T03:46:06.702Z,27.17
2018-04-19T03:48:34.193Z,28.10
2018-04-19T03:51:01.703Z,27.67
2018-04-19T03:53:29.207Z,26.60
2018-04-19T03:55:56.710Z,28.67
2018-04-19T03:58:24.234Z,29.47
2018-04-19T04:00:51.746Z,28.30
2018-04-19T04:03:19.225Z,29.47
2018-04-19T04:05:47.501Z,28.03
2018-04-19T04:08:15.764Z,27.90
2018-04-19T04:10:43.322Z,28.77
2018-04-19T04:13:10.811Z,27.30
2018-04-19T04:15:39.136Z,27.93
2018-04-19T04:21:18.583Z,27.70
2018-04-19T04:23:52.636Z,28.20
2018-04-19T04:26:20.124Z,27.37
2018-04-19T04:28:47.617Z,27.27
2018-04-19T04:31:15.286Z,27.07
2018-04-19T04:33:42.660Z,27.57
2018-04-19T04:36:10.150Z,27.33
2018-04-19T04:38:37.710Z,28.20
2018-04-19T04:41:05.953Z,28.13
2018-04-19T04:43:33.476Z,27.20
2018-04-19T04:46:01.008Z,27.43
2018-04-19T04:48:28.617Z,27.43
2018-04-19T04:50:56.929Z,26.63
2018-04-19T04:53:25.244Z,26.97
2018-04-19T04:55:52.774Z,27.27
2018-04-19T04:58:21.054Z,26.37
2018-04-19T05:00:49.481Z,27.40
2018-04-19T05:03:17.047Z,27.40
2018-04-19T05:05:45.345Z,26.77
2018-04-19T05:08:13.620Z,24.57
2018-04-19T05:10:41.722Z,24.40
2018-04-19T05:13:09.987Z,23.73
2018-04-19T05:15:37.458Z,25.00
2018-04-19T05:18:05.711Z,25.80
2018-04-19T05:20:33.190Z,26.10
2018-04-19T05:23:01.513Z,24.20
2018-04-19T05:25:29.009Z,25.13
2018-04-19T05:27:56.545Z,23.10
2018-04-19T05:30:24.869Z,23.83
2018-04-19T05:32:53.177Z,23.77
2018-04-19T05:35:20.695Z,22.93
2018-04-19T05:37:48.985Z,22.00
2018-04-19T05:40:17.230Z,21.40
2018-04-19T05:42:44.835Z,20.67
2018-04-19T05:45:12.558Z,20.43
2018-04-19T05:47:40.039Z,20.60
2018-04-19T05:50:08.291Z,22.50
2018-04-19T05:52:35.949Z,21.03
2018-04-19T05:55:03.433Z,21.00
2018-04-19T05:57:31.694Z,20.30
2018-04-19T05:59:59.960Z,20.20
2018-04-19T06:02:27.474Z,19.60
2018-04-19T06:04:55.052Z,19.87
2018-04-19T06:07:22.583Z,20.27
2018-04-19T06:09:50.091Z,19.27
2018-04-19T06:12:17.595Z,20.17
2018-04-19T06:14:45.176Z,19.57
2018-04-19T06:17:12.694Z,19.40
2018-04-19T06:19:40.511Z,19.83
2018-04-19T06:22:11.278Z,19.97
2018-04-19T06:24:39.145Z,19.20
2018-04-19T06:27:06.672Z,19.83
2018-04-19T06:29:34.490Z,18.83
2018-04-19T06:32:01.977Z,18.02
2018-04-19T06:34:29.480Z,20.27
2018-04-19T06:36:56.992Z,19.87
2018-04-19T06:39:24.542Z,19.20
2018-04-19T06:41:52.035Z,19.05
2018-04-19T06:44:19.545Z,19.20
2018-04-19T06:46:47.807Z,18.33
2018-04-19T06:49:15.283Z,19.45
2018-04-19T06:51:43.542Z,18.90
2018-04-19T06:54:15.298Z,19.23
2018-04-19T06:56:42.822Z,18.70
2018-04-19T06:59:11.101Z,19.17
2018-04-19T07:01:38.591Z,18.10
2018-04-19T07:04:06.123Z,19.20
2018-04-19T07:06:35.179Z,18.23
2018-04-19T07:09:02.636Z,18.60
2018-04-19T07:11:30.311Z,18.27
2018-04-19T07:13:57.883Z,18.08
2018-04-19T07:16:25.984Z,17.48
2018-04-19T07:18:53.598Z,18.58
2018-04-19T07:21:21.138Z,17.00
2018-04-19T07:23:49.460Z,18.17
2018-04-19T07:26:17.620Z,16.90
2018-04-19T07:28:45.159Z,15.85
2018-04-19T07:31:13.026Z,16.65
2018-04-19T07:33:40.529Z,15.70
2018-04-19T07:36:08.033Z,17.48
2018-04-19T07:38:36.900Z,16.10
2018-04-19T07:41:04.419Z,16.35
2018-04-19T07:43:31.944Z,16.77
2018-04-19T07:46:00.203Z,16.87
2018-04-19T07:48:27.743Z,18.03
2018-04-19T07:50:55.273Z,17.83
2018-04-19T07:53:22.830Z,18.23
2018-04-19T07:55:50.315Z,17.47
2018-04-19T07:58:17.849Z,16.80
2018-04-19T08:00:45.417Z,16.87
2018-04-19T08:03:12.887Z,16.70
2018-04-19T08:05:40.438Z,16.63
2018-04-19T08:08:08.081Z,16.20
2018-04-19T08:10:35.607Z,15.57
2018-04-19T08:13:03.109Z,15.47
2018-04-19T08:15:30.660Z,14.80
2018-04-19T08:17:58.215Z,14.93
2018-04-19T08:20:25.948Z,14.00
2018-04-19T08:22:53.937Z,15.67
2018-04-19T08:25:22.182Z,13.57
2018-04-19T08:27:49.706Z,13.93
2018-04-19T08:30:17.193Z,12.87
2018-04-19T08:32:44.683Z,12.63
2018-04-19T08:35:12.939Z,13.23
2018-04-19T08:37:41.221Z,11.13
2018-04-19T08:40:08.741Z,10.83
2018-04-19T08:42:36.875Z,9.13
2018-04-19T08:45:04.479Z,9.30
2018-04-19T08:47:32.891Z,8.47
2018-04-19T08:50:03.405Z,8.23
2018-04-19T08:52:30.869Z,8.27
2018-04-19T08:54:58.352Z,8.03
2018-04-19T08:57:26.707Z,5.73
2018-04-19T08:59:54.216Z,3.97
2018-04-19T09:02:21.705Z,3.83
2018-04-19T09:04:49.208Z,3.23
2018-04-19T09:07:17.451Z,4.07
2018-04-19T09:09:44.951Z,3.40
2018-04-19T09:12:12.463Z,3.20
2018-04-19T09:14:40.024Z,3.40
2018-04-19T09:17:07.606Z,3.50
2018-04-19T09:19:35.270Z,3.20
2018-04-19T09:22:02.758Z,3.53
2018-04-19T09:24:31.096Z,3.27
2018-04-19T09:27:06.520Z,3.00
2018-04-19T09:39:20.293Z,3.40
2018-04-19T09:41:47.812Z,3.27
2018-04-19T09:44:17.587Z,3.10
2018-04-19T09:46:45.081Z,2.70
2018-04-19T09:49:12.576Z,3.07
2018-04-19T09:51:48.193Z,2.77
2018-04-19T09:54:16.579Z,3.00
2018-04-19T09:56:44.395Z,2.93
2018-04-19T09:59:13.140Z,3.10
2018-04-19T10:01:47.231Z,3.00
2018-04-19T10:04:15.511Z,2.83
2018-04-19T10:06:43.449Z,2.70
2018-04-19T10:09:11.055Z,3.17
2018-04-19T10:11:38.916Z,2.80
2018-04-19T10:14:06.410Z,2.93
2018-04-19T10:16:34.588Z,2.77
2018-04-19T10:19:02.066Z,2.73
2018-04-19T10:21:29.602Z,2.80
2018-04-19T10:23:57.778Z,2.83
2018-04-19T10:26:25.353Z,2.90
2018-04-19T10:28:52.910Z,3.10
2018-04-19T10:31:20.383Z,3.53
2018-04-19T10:33:47.963Z,3.10
2018-04-19T10:36:15.389Z,5.27
2018-04-19T10:38:42.901Z,6.93
2018-04-19T10:41:11.234Z,7.20
2018-04-19T10:43:38.843Z,8.55
2018-04-19T10:46:07.112Z,8.63
2018-04-19T10:48:38.001Z,7.30
2018-04-19T10:51:05.502Z,7.00
2018-04-19T10:53:33.014Z,9.82
2018-04-19T10:56:00.523Z,10.75
2018-04-19T10:58:29.299Z,10.45
2018-04-19T11:00:56.821Z,10.50
2018-04-19T11:03:28.679Z,11.15
2018-04-19T11:28:52.935Z,9.17
2018-04-19T11:31:21.313Z,9.00
2018-04-19T11:33:50.135Z,9.80
2018-04-19T11:36:19.402Z,8.40
2018-04-19T11:38:48.224Z,8.90
2018-04-19T11:41:17.285Z,7.90
2018-04-19T11:43:46.299Z,7.70
2018-04-19T11:46:14.395Z,9.43
2018-04-19T11:48:49.457Z,8.33
2018-04-19T11:51:21.588Z,9.57
2018-04-19T11:53:55.179Z,8.60
2018-04-19T11:56:22.688Z,8.43
2018-04-19T11:58:50.182Z,8.93
2018-04-19T12:01:17.775Z,7.73
2018-04-19T12:03:45.277Z,8.07
2018-04-19T12:06:12.775Z,8.30
2018-04-19T12:08:40.427Z,7.77
2018-04-19T12:11:07.918Z,8.67
2018-04-19T12:13:36.239Z,8.67
2018-04-19T12:16:03.810Z,8.70
2018-04-19T12:18:31.335Z,8.30
2018-04-19T12:20:58.826Z,7.83
2018-04-19T12:23:26.376Z,7.97
2018-04-19T12:25:53.932Z,7.67
2018-04-19T12:28:21.535Z,7.73
2018-04-19T12:30:49.707Z,8.97
2018-04-19T12:33:17.200Z,7.90
2018-04-19T12:35:44.698Z,8.37
2018-04-19T12:38:12.223Z,8.27
2018-04-19T12:40:39.729Z,9.07
2018-04-19T12:43:07.899Z,9.27
2018-04-19T12:45:36.419Z,8.60
2018-04-19T12:48:03.947Z,8.97
2018-04-19T12:50:31.486Z,8.40
2018-04-19T12:52:58.997Z,7.80
2018-04-19T12:55:27.325Z,7.30
2018-04-19T12:57:54.856Z,6.97
2018-04-19T13:00:22.522Z,7.87
2018-04-19T13:02:50.080Z,7.93
2018-04-19T13:05:19.111Z,6.37
2018-04-19T13:07:47.619Z,6.13
2018-04-19T13:10:15.137Z,7.50
2018-04-19T13:12:42.618Z,7.13
2018-04-19T13:15:10.134Z,7.37
2018-04-19T13:17:37.633Z,5.90
2018-04-19T13:20:05.138Z,5.07
2018-04-19T13:22:32.666Z,4.90
2018-04-19T13:25:00.184Z,4.13
2018-04-19T13:27:27.674Z,3.73
2018-04-19T13:29:55.178Z,4.33
2018-04-19T13:32:22.670Z,3.90
2018-04-19T13:34:50.216Z,4.10
2018-04-19T13:37:17.776Z,3.80
2018-04-19T13:39:45.730Z,3.93
2018-04-19T13:42:13.237Z,4.43
2018-04-19T13:44:40.705Z,4.00
2018-04-19T13:47:08.206Z,4.00
2018-04-19T13:49:36.539Z,4.00
2018-04-19T13:52:04.134Z,3.73
2018-04-19T14:07:26.685Z,3.30
2018-04-19T14:09:54.184Z,3.67
2018-04-19T14:12:21.692Z,3.50
2018-04-19T14:14:49.218Z,3.23
2018-04-19T14:17:16.722Z,3.10
2018-04-19T14:19:44.202Z,3.33
2018-04-19T14:22:11.711Z,3.23
2018-04-19T14:24:39.954Z,2.73
2018-04-19T14:27:07.456Z,3.00
2018-04-19T14:29:35.697Z,3.70
2018-04-19T14:32:03.250Z,3.00
2018-04-19T14:34:30.750Z,3.10
2018-04-19T14:36:58.310Z,3.03
2018-04-19T14:39:26.743Z,2.80
2018-04-19T14:41:54.202Z,2.93
2018-04-19T14:44:21.808Z,3.00
2018-04-19T14:46:50.180Z,2.80
2018-04-19T14:49:18.477Z,2.93
2018-04-19T14:51:46.691Z,3.20
2018-04-19T14:54:14.182Z,3.10
2018-04-19T14:56:42.446Z,3.20
2018-04-19T14:59:09.911Z,3.23
2018-04-19T15:01:37.922Z,3.17
2018-04-19T15:04:05.399Z,3.43
2018-04-19T15:06:33.946Z,3.13
2018-04-19T15:09:02.216Z,3.10
2018-04-19T15:11:30.435Z,3.10
2018-04-19T15:13:57.979Z,3.30
2018-04-19T15:16:25.495Z,3.20
2018-04-19T15:18:52.993Z,3.43
2018-04-19T15:21:20.623Z,3.90
2018-04-19T15:23:48.921Z,3.60
2018-04-19T15:26:16.425Z,3.33
2018-04-19T15:28:43.935Z,3.43
2018-04-19T15:31:12.192Z,3.97
2018-04-19T15:33:40.421Z,3.73
2018-04-19T15:36:08.383Z,3.27
2018-04-19T15:38:35.897Z,3.70
2018-04-19T15:41:04.154Z,3.80
2018-04-19T15:43:31.650Z,3.83
2018-04-19T15:45:59.235Z,3.83
2018-04-19T15:48:26.726Z,4.03
2018-04-19T15:50:54.230Z,4.77
2018-04-19T15:53:21.690Z,4.37
2018-04-19T15:55:49.293Z,3.93
2018-04-19T15:58:16.770Z,3.97
2018-04-19T16:00:44.755Z,3.97
2018-04-19T16:03:13.008Z,3.90
2018-04-19T16:05:41.391Z,3.60
2018-04-19T16:08:08.922Z,3.57
2018-04-19T16:10:36.412Z,3.70
2018-04-19T16:13:03.892Z,3.83
2018-04-19T16:15:32.168Z,4.40
2018-04-19T16:17:59.671Z,3.90
2018-04-19T16:20:27.163Z,3.87
2018-04-19T16:22:54.666Z,4.10
2018-04-19T16:25:22.178Z,3.60
2018-04-19T16:27:49.712Z,4.00
2018-04-19T16:30:17.208Z,3.90
2018-04-19T16:32:44.720Z,3.80
2018-04-19T16:35:12.215Z,4.37
2018-04-19T16:37:39.717Z,4.17
2018-04-19T16:40:07.248Z,3.50
2018-04-19T16:42:34.715Z,4.03
2018-04-19T16:45:03.084Z,3.70
2018-04-19T16:47:30.673Z,3.67
2018-04-19T16:49:58.967Z,4.07
2018-04-19T16:52:26.464Z,4.30
2018-04-19T16:54:53.959Z,3.97
2018-04-19T16:57:21.475Z,4.00
2018-04-19T16:59:49.029Z,4.27
2018-04-19T17:02:16.695Z,4.10
2018-04-19T17:04:44.168Z,4.13
2018-04-19T17:07:11.721Z,4.40
2018-04-19T17:09:40.295Z,4.43
2018-04-19T17:12:07.832Z,4.27
2018-04-19T17:14:35.347Z,4.20
2018-04-19T17:17:03.595Z,4.13
2018-04-19T17:19:31.996Z,4.30
2018-04-19T17:21:59.489Z,4.30
2018-04-19T17:24:26.985Z,4.50
2018-04-19T17:26:54.940Z,4.40
2018-04-19T17:29:22.420Z,4.40
2018-04-19T17:31:49.924Z,4.60
2018-04-19T17:34:17.428Z,4.20
2018-04-19T17:36:44.981Z,4.60
2018-04-19T17:39:12.459Z,4.23
2018-04-19T17:41:39.942Z,4.37
2018-04-19T17:44:08.222Z,4.33
2018-04-19T17:46:36.491Z,3.90
2018-04-19T17:49:04.751Z,4.50
2018-04-19T17:51:32.223Z,4.67
2018-04-19T17:54:00.468Z,4.10
2018-04-19T17:56:28.052Z,4.37
2018-04-19T17:58:55.569Z,4.20
2018-04-19T18:01:23.538Z,4.90
2018-04-19T18:03:51.039Z,4.10
2018-04-19T18:06:19.312Z,4.50
2018-04-19T18:08:46.800Z,4.20
2018-04-19T18:11:14.307Z,4.40
2018-04-19T18:13:41.823Z,4.27
2018-04-19T18:16:10.066Z,4.10
2018-04-19T18:18:37.539Z,5.03
2018-04-19T18:21:05.953Z,4.70
2018-04-19T18:23:33.869Z,4.63
2018-04-19T18:26:02.775Z,4.73
2018-04-19T18:28:31.252Z,5.30
2018-04-19T18:30:58.796Z,5.63
2018-04-19T18:33:26.302Z,6.43
2018-04-19T18:35:53.798Z,4.40
2018-04-19T18:38:21.487Z,4.60
2018-04-19T18:40:49.038Z,4.27
2018-04-19T18:43:16.551Z,4.53
2018-04-19T18:45:44.044Z,4.40
2018-04-19T18:48:11.552Z,5.03
2018-04-19T18:50:39.031Z,5.10
2018-04-19T18:53:06.674Z,5.00
2018-04-19T18:55:34.196Z,4.90
2018-04-19T18:58:01.945Z,4.43
2018-04-19T19:00:29.491Z,5.00
2018-04-19T19:02:57.990Z,4.83
2018-04-19T19:05:25.507Z,5.20
2018-04-19T19:07:53.035Z,5.00
2018-04-19T19:10:20.513Z,4.60
2018-04-19T19:12:48.032Z,5.30
2018-04-19T19:18:42.113Z,5.20
2018-04-19T19:21:09.729Z,5.30
2018-04-19T19:23:37.270Z,5.70
2018-04-19T19:26:05.849Z,5.20
2018-04-19T19:28:34.734Z,5.60
2018-04-19T19:31:03.409Z,5.70
2018-04-19T19:33:31.578Z,4.90
2018-04-19T19:36:00.217Z,5.90
2018-04-19T19:38:28.445Z,5.77
2018-04-19T19:40:56.236Z,6.43
2018-04-19T19:43:23.948Z,6.13
2018-04-19T19:45:51.516Z,6.40
2018-04-19T19:48:19.324Z,6.13
2018-04-19T19:50:47.588Z,5.93
2018-04-19T19:53:15.246Z,6.50
2018-04-19T19:55:42.883Z,6.43
2018-04-19T19:58:10.455Z,6.30
2018-04-19T20:00:38.437Z,6.47
2018-04-19T20:03:06.054Z,6.10
2018-04-19T20:05:33.546Z,6.50
2018-04-19T20:08:01.126Z,6.40
2018-04-19T20:10:28.704Z,5.90
2018-04-19T20:12:56.185Z,6.10
2018-04-19T20:15:24.400Z,6.50
2018-04-19T20:17:51.916Z,7.13
2018-04-19T20:20:19.417Z,6.77
2018-04-19T20:22:46.927Z,8.73
2018-04-19T20:25:14.541Z,9.37
2018-04-19T20:27:42.078Z,6.53
2018-04-19T20:30:09.599Z,6.77
2018-04-19T20:32:37.863Z,6.40
2018-04-19T20:35:05.330Z,6.53
2018-04-19T20:37:33.588Z,7.00
2018-04-19T20:40:01.103Z,7.23
2018-04-19T20:42:28.602Z,6.60
2018-04-19T20:44:56.125Z,6.80
2018-04-19T20:47:23.645Z,5.80
2018-04-19T20:49:52.139Z,6.47
2018-04-19T20:52:19.763Z,6.80
2018-04-19T20:54:47.258Z,6.77
2018-04-19T20:57:14.776Z,5.93
2018-04-19T20:59:43.095Z,5.77
2018-04-19T21:02:10.601Z,6.33
2018-04-19T21:04:38.110Z,6.83
2018-04-19T21:07:05.663Z,6.40
2018-04-19T21:09:33.914Z,6.40
2018-04-19T21:12:01.669Z,6.87
2018-04-19T21:14:29.327Z,6.17
2018-04-19T21:16:56.981Z,6.60
2018-04-19T21:19:24.658Z,6.57
2018-04-19T21:21:53.046Z,6.53
2018-04-19T21:24:20.692Z,6.80
2018-04-19T21:26:48.397Z,6.20
2018-04-19T21:29:15.950Z,6.93
2018-04-19T21:31:44.330Z,6.47
2018-04-19T21:34:12.627Z,6.20
2018-04-19T21:36:40.186Z,6.83
2018-04-19T21:39:07.797Z,6.27
2018-04-19T21:41:35.355Z,6.37
2018-04-19T21:44:03.660Z,6.37
2018-04-19T21:46:31.287Z,6.97
2018-04-19T21:48:58.825Z,6.77
2018-04-19T21:51:26.442Z,6.97
2018-04-19T21:53:54.046Z,8.77
2018-04-19T21:56:21.553Z,7.57
2018-04-19T21:58:49.033Z,7.70
2018-04-19T22:01:17.321Z,7.60
2018-04-19T22:03:44.841Z,7.20
2018-04-19T22:06:12.361Z,7.90
2018-04-19T22:08:39.876Z,7.40
2018-04-19T22:11:08.142Z,7.40
2018-04-19T22:13:35.686Z,8.00
2018-04-19T22:16:03.690Z,7.20
2018-04-19T22:18:31.999Z,7.83
2018-04-19T22:20:59.511Z,7.60
2018-04-19T22:23:27.027Z,7.93
2018-04-19T22:25:54.605Z,7.60
2018-04-19T22:28:22.127Z,7.10
2018-04-19T22:30:49.603Z,8.20
2018-04-19T22:33:17.163Z,8.00
2018-04-19T22:35:44.725Z,8.10
2018-04-19T22:38:12.306Z,8.37
2018-04-19T22:40:39.811Z,8.40
2018-04-19T22:43:08.116Z,7.83
2018-04-19T22:45:35.694Z,15.10
2018-04-19T22:48:03.247Z,11.77
2018-04-19T22:50:31.466Z,10.43
2018-04-19T22:52:59.727Z,8.80
2018-04-19T22:55:27.279Z,9.10
2018-04-19T22:57:54.819Z,9.43
2018-04-19T23:00:24.927Z,9.10
2018-04-19T23:02:52.449Z,8.13
2018-04-19T23:05:20.757Z,8.27
2018-04-19T23:07:49.037Z,8.67
2018-04-19T23:10:16.564Z,9.73
2018-04-19T23:12:44.825Z,8.93
2018-04-19T23:15:12.398Z,8.53
2018-04-19T23:17:40.730Z,9.13
2018-04-19T23:20:09.321Z,8.70
2018-04-19T23:22:37.635Z,10.20
2018-04-19T23:25:05.976Z,9.63
2018-04-19T23:27:34.083Z,8.83
2018-04-19T23:30:01.796Z,9.70
2018-04-19T23:32:29.349Z,9.20
2018-04-19T23:34:56.882Z,9.87
2018-04-19T23:37:25.159Z,9.37
2018-04-19T23:39:53.440Z,9.43
2018-04-19T23:42:21.732Z,10.00
2018-04-19T23:44:49.790Z,9.87
2018-04-19T23:47:18.111Z,9.90
2018-04-19T23:49:45.597Z,10.93
2018-04-19T23:52:13.103Z,10.57
2018-04-19T23:54:40.873Z,10.77
2018-04-19T23:57:08.639Z,11.30
2018-04-19T23:59:36.591Z,11.30
